KDRA/DRA METAR and TAF weather

Enter ICAO airport designator
Station Type Date Time Source
KDRA METAR 2021/08/02 01:53 UTC NOAA

KDRA 020153Z AUTO 21008KT 10SM CLR 35/07 A3006 RMK AO2 SLP125 T03500072


Station Type Date Time Source
KDRA Decoded METAR 2021/08/02 01:53 UTC NOAA

DESERT ROCK AIRPORT, NV, United States (KDRA) 36-38N 116-02W 1006M
Aug 01, 2021 - 09:53 PM EDT / 2021.08.02 0153 UTC
Wind: from the SSW (210 degrees) at 9 MPH (8 KT):0
Visibility: 10 mile(s):0
Sky conditions: clear
Temperature: 95.0 F (35.0 C)
Dew Point: 45.0 F (7.2 C)
Relative Humidity: 18%
Pressure (altimeter): 30.06 in. Hg (1017 hPa)
ob: KDRA 020153Z AUTO 21008KT 10SM CLR 35/07 A3006 RMK AO2 SLP125 T03500072
cycle: 2

Station Type Date Time Source
KDRA TAF 2011/12/07 06:36 UTC NOAA

TAF KDRA 070532Z 0706/0806 VRB04KT P6SM SKC

Example: see airport list